createdAt,value
2022-12-10T00:00:58.779Z,0.20
2022-12-10T00:03:39.675Z,-0.70
2022-12-10T00:06:12.406Z,-3.80
2022-12-10T00:11:31.186Z,-0.30
2022-12-10T00:14:01.422Z,-0.50
2022-12-10T00:19:17.256Z,-0.50
2022-12-10T00:21:57.557Z,1.60
2022-12-10T00:24:31.242Z,-0.40
2022-12-10T00:35:40.050Z,-0.40
2022-12-10T00:44:15.572Z,-0.50
2022-12-10T00:49:41.219Z,-0.60
2022-12-10T00:52:15.568Z,-0.60
2022-12-10T00:54:54.764Z,-0.30
2022-12-10T00:57:23.120Z,-0.70
2022-12-10T01:00:00.624Z,-0.60
2022-12-10T01:02:29.715Z,-0.50
2022-12-10T01:05:03.023Z,-0.60
2022-12-10T01:07:32.495Z,-0.50
2022-12-10T01:10:21.490Z,-0.50
2022-12-10T01:15:42.934Z,-0.30
2022-12-10T01:21:31.131Z,-0.60
2022-12-10T01:24:11.719Z,-1.10
2022-12-10T01:26:53.936Z,-0.50
2022-12-10T01:29:40.826Z,-0.10
2022-12-10T01:32:10.995Z,-1.20
2022-12-10T01:37:58.392Z,-0.70
2022-12-10T01:43:36.688Z,-0.70
2022-12-10T01:46:07.781Z,-0.60
2022-12-10T01:48:35.919Z,-0.70
2022-12-10T01:53:45.079Z,-0.60
2022-12-10T01:56:15.769Z,-0.80
2022-12-10T01:58:45.396Z,-0.80
2022-12-10T02:01:23.651Z,-0.70
2022-12-10T02:04:15.822Z,-0.70
2022-12-10T02:07:01.536Z,-0.60
2022-12-10T02:09:40.844Z,-1.10
2022-12-10T02:12:24.842Z,-1.00
2022-12-10T02:14:58.524Z,-1.00
2022-12-10T02:17:30.805Z,-0.90
2022-12-10T02:20:19.510Z,-1.10
2022-12-10T02:22:51.109Z,-0.90
2022-12-10T02:25:31.114Z,-0.90
2022-12-10T02:28:04.517Z,-1.20
2022-12-10T02:30:45.261Z,-1.20
2022-12-10T02:33:25.771Z,-0.90
2022-12-10T02:35:56.780Z,-1.50
2022-12-10T02:38:27.525Z,-1.20
2022-12-10T02:41:00.490Z,-4.40
2022-12-10T02:43:29.983Z,-1.00
2022-12-10T02:45:58.390Z,-1.30
2022-12-10T02:48:26.239Z,-1.30
2022-12-10T02:55:59.877Z,-1.30
2022-12-10T02:58:35.287Z,-1.20
2022-12-10T03:01:12.902Z,-1.30
2022-12-10T03:03:48.047Z,-1.30
2022-12-10T03:06:21.427Z,-1.20
2022-12-10T03:08:51.270Z,-1.50
2022-12-10T03:11:19.627Z,-0.90
2022-12-10T03:13:54.229Z,-1.20
2022-12-10T03:16:23.458Z,-1.10
2022-12-10T03:18:54.390Z,-1.20
2022-12-10T03:21:23.261Z,1.10
2022-12-10T03:23:50.799Z,-1.00
2022-12-10T03:26:18.896Z,-1.00
2022-12-10T03:28:50.726Z,-1.10
2022-12-10T03:31:19.475Z,-1.00
2022-12-10T03:33:48.222Z,-1.00
2022-12-10T03:36:16.623Z,-1.00
2022-12-10T03:38:44.039Z,-1.00
2022-12-10T03:43:51.091Z,-1.00
2022-12-10T03:51:12.393Z,-0.90
2022-12-10T04:08:21.679Z,-1.00
2022-12-10T04:24:17.662Z,-0.70
2022-12-10T04:27:00.806Z,-1.00
2022-12-10T04:29:33.303Z,-0.60
2022-12-10T04:32:01.073Z,-0.80
2022-12-10T04:34:29.003Z,-0.70
2022-12-10T04:37:13.913Z,-1.00
2022-12-10T04:39:49.585Z,-0.60
2022-12-10T04:42:33.540Z,-1.30
2022-12-10T04:47:33.293Z,-1.00
2022-12-10T04:54:54.795Z,-0.80
2022-12-10T05:12:04.715Z,-0.20
2022-12-10T05:27:06.474Z,-0.20
2022-12-10T05:29:33.843Z,-0.30
2022-12-10T05:44:16.147Z,-0.10
2022-12-10T05:51:38.179Z,-0.10
2022-12-10T05:54:06.206Z,0.40
2022-12-10T05:59:02.159Z,2.20
2022-12-10T06:01:31.318Z,0.00
2022-12-10T06:06:27.581Z,-0.10
2022-12-10T06:18:50.949Z,0.00
2022-12-10T06:21:18.704Z,0.10
2022-12-10T06:23:46.090Z,0.10
2022-12-10T06:26:15.180Z,-0.10
2022-12-10T06:36:05.765Z,-0.10
2022-12-10T06:43:29.688Z,0.00
2022-12-10T06:53:18.160Z,0.10
2022-12-10T07:03:05.817Z,-0.50
2022-12-10T07:05:32.635Z,0.00
2022-12-10T07:10:26.980Z,0.00
2022-12-10T07:25:09.410Z,0.00
2022-12-10T07:27:37.619Z,0.00
2022-12-10T07:44:49.788Z,0.10
2022-12-10T08:02:04.153Z,0.20
2022-12-10T08:19:21.445Z,0.30
2022-12-10T08:21:55.527Z,0.30
2022-12-10T08:34:13.452Z,0.30
2022-12-10T08:39:07.731Z,0.30
2022-12-10T08:56:17.731Z,0.40
2022-12-10T09:01:13.855Z,0.50
2022-12-10T09:06:11.038Z,0.50
2022-12-10T09:08:38.453Z,0.40
2022-12-10T09:11:06.831Z,0.60
2022-12-10T09:13:34.263Z,0.40
2022-12-10T09:20:55.245Z,0.90
2022-12-10T09:28:16.313Z,0.70
2022-12-10T09:30:43.694Z,0.70
2022-12-10T09:35:41.433Z,0.70
2022-12-10T09:40:42.384Z,0.70
2022-12-10T09:43:19.687Z,0.70
2022-12-10T09:46:03.887Z,0.60
2022-12-10T09:48:40.690Z,0.90
2022-12-10T09:51:13.210Z,0.80
2022-12-10T09:53:43.347Z,0.80
2022-12-10T09:56:18.682Z,0.80
2022-12-10T10:01:16.707Z,0.90
2022-12-10T10:06:16.986Z,0.90
2022-12-10T10:08:46.543Z,0.80
2022-12-10T10:11:17.759Z,0.80
2022-12-10T10:13:49.956Z,0.80
2022-12-10T10:16:24.697Z,0.80
2022-12-10T10:18:56.465Z,1.00
2022-12-10T10:21:25.454Z,0.80
2022-12-10T10:23:53.301Z,0.80
2022-12-10T10:28:56.942Z,1.40
2022-12-10T10:31:26.739Z,1.00
2022-12-10T10:33:57.073Z,0.90
2022-12-10T10:36:25.757Z,0.90
2022-12-10T10:38:52.728Z,1.00
2022-12-10T10:41:20.089Z,1.10
2022-12-10T10:46:16.756Z,1.10
2022-12-10T10:48:44.676Z,1.00
2022-12-10T10:51:20.773Z,1.00
2022-12-10T10:53:50.483Z,1.20
2022-12-10T10:56:21.317Z,0.90
2022-12-10T10:58:54.030Z,0.80
2022-12-10T11:03:50.981Z,1.00
2022-12-10T11:06:18.680Z,1.80
2022-12-10T11:08:48.375Z,1.00
2022-12-10T11:11:21.097Z,0.90
2022-12-10T11:13:48.256Z,0.90
2022-12-10T11:16:20.551Z,0.90
2022-12-10T11:19:02.671Z,1.00
2022-12-10T11:21:31.280Z,0.70
2022-12-10T11:23:59.783Z,0.90
2022-12-10T11:26:55.550Z,0.90
2022-12-10T11:29:40.787Z,1.00
2022-12-10T11:32:28.081Z,1.20
2022-12-10T11:35:11.194Z,1.00
2022-12-10T11:37:42.675Z,0.80
2022-12-10T11:40:35.621Z,0.50
2022-12-10T11:43:26.009Z,1.10
2022-12-10T11:46:02.155Z,1.10
2022-12-10T11:48:48.529Z,1.00
2022-12-10T11:51:24.880Z,1.20
2022-12-10T11:54:04.930Z,1.10
2022-12-10T11:56:35.076Z,1.00
2022-12-10T11:59:13.791Z,1.10
2022-12-10T12:02:08.733Z,1.20
2022-12-10T12:04:51.690Z,1.10
2022-12-10T12:07:36.732Z,1.00
2022-12-10T12:10:53.832Z,0.90
2022-12-10T12:14:07.915Z,0.90
2022-12-10T12:16:49.990Z,1.00
2022-12-10T12:19:24.716Z,1.20
2022-12-10T12:21:57.058Z,0.50
2022-12-10T12:24:35.687Z,0.80
2022-12-10T12:27:19.623Z,0.90
2022-12-10T12:29:56.478Z,0.80
2022-12-10T12:32:29.854Z,0.80
2022-12-10T12:35:05.828Z,0.90
2022-12-10T12:37:39.033Z,0.90
2022-12-10T12:40:14.187Z,0.60
2022-12-10T12:42:48.566Z,0.70
2022-12-10T12:45:25.407Z,0.80
2022-12-10T12:48:02.722Z,1.10
2022-12-10T12:50:43.731Z,0.90
2022-12-10T12:53:14.005Z,0.80
2022-12-10T12:55:50.111Z,0.70
2022-12-10T12:58:27.366Z,0.50
2022-12-10T13:00:59.380Z,0.70
2022-12-10T13:03:34.962Z,0.40
2022-12-10T13:06:19.920Z,1.10
2022-12-10T13:08:49.400Z,0.80
2022-12-10T13:11:19.677Z,0.70
2022-12-10T13:14:34.276Z,0.80
2022-12-10T13:17:24.057Z,0.80
2022-12-10T13:22:44.881Z,0.70
2022-12-10T13:25:15.271Z,0.70
2022-12-10T13:27:43.120Z,0.90
2022-12-10T13:30:35.838Z,1.60
2022-12-10T13:33:21.411Z,1.90
2022-12-10T13:35:57.554Z,0.90
2022-12-10T13:38:26.159Z,0.90
2022-12-10T13:41:24.006Z,2.50
2022-12-10T13:44:18.318Z,0.90
2022-12-10T13:46:57.623Z,1.60
2022-12-10T13:49:27.883Z,0.90
2022-12-10T13:51:59.105Z,0.80
2022-12-10T13:55:04.261Z,0.80
2022-12-10T13:58:01.736Z,0.90
2022-12-10T14:00:39.371Z,0.70
2022-12-10T14:03:36.411Z,0.60
2022-12-10T14:06:17.886Z,0.50
2022-12-10T14:09:02.461Z,0.60
2022-12-10T14:11:37.030Z,0.70
2022-12-10T14:14:07.039Z,0.70
2022-12-10T14:16:38.483Z,0.90
2022-12-10T14:19:07.562Z,0.70
2022-12-10T14:21:36.150Z,0.70
2022-12-10T14:26:32.185Z,0.60
2022-12-10T14:29:01.284Z,0.50
2022-12-10T14:31:32.277Z,0.60
2022-12-10T14:34:02.611Z,0.50
2022-12-10T14:36:32.137Z,0.50
2022-12-10T14:39:00.269Z,0.70
2022-12-10T14:41:31.827Z,0.70
2022-12-10T14:44:04.051Z,0.60
2022-12-10T14:46:32.080Z,0.60
2022-12-10T14:51:32.349Z,0.50
2022-12-10T14:56:29.376Z,0.70
2022-12-10T14:59:02.974Z,0.60
2022-12-10T15:01:31.772Z,0.50
2022-12-10T15:04:02.105Z,0.60
2022-12-10T15:06:33.676Z,0.50
2022-12-10T15:11:28.784Z,0.50
2022-12-10T15:13:58.707Z,0.60
2022-12-10T15:16:31.657Z,0.50
2022-12-10T15:19:18.101Z,0.70
2022-12-10T15:21:46.930Z,0.50
2022-12-10T15:24:25.775Z,0.50
2022-12-10T15:29:34.724Z,0.60
2022-12-10T15:32:10.091Z,0.60
2022-12-10T15:34:41.641Z,0.40
2022-12-10T15:37:18.576Z,0.70
2022-12-10T15:39:48.342Z,0.60
2022-12-10T15:42:37.918Z,0.70
2022-12-10T15:45:15.422Z,0.50
2022-12-10T15:50:11.425Z,0.50
2022-12-10T15:52:39.294Z,0.50
2022-12-10T15:55:07.304Z,0.30
2022-12-10T15:57:36.534Z,0.60
2022-12-10T16:00:08.633Z,0.60
2022-12-10T16:02:37.933Z,0.60
2022-12-10T16:05:12.612Z,0.70
2022-12-10T16:07:40.052Z,0.60
2022-12-10T16:10:08.574Z,1.50
2022-12-10T16:12:40.334Z,0.50
2022-12-10T16:15:15.532Z,0.80
2022-12-10T16:20:19.361Z,0.60
2022-12-10T16:22:47.214Z,0.70
2022-12-10T16:30:17.004Z,0.60
2022-12-10T16:37:43.047Z,0.50
2022-12-10T16:40:11.470Z,0.90
2022-12-10T16:45:13.737Z,0.80
2022-12-10T16:50:08.342Z,0.40
2022-12-10T16:57:35.307Z,0.50
2022-12-10T17:14:50.604Z,0.60
2022-12-10T17:27:11.050Z,0.40
2022-12-10T17:29:40.701Z,0.30
2022-12-10T17:32:12.914Z,0.40
2022-12-10T17:34:39.552Z,0.30
2022-12-10T17:37:10.705Z,0.30
2022-12-10T17:42:06.325Z,0.70
2022-12-10T17:44:32.937Z,0.20
2022-12-10T17:49:27.217Z,0.40
2022-12-10T17:51:59.172Z,0.50
2022-12-10T18:06:43.726Z,0.40
2022-12-10T18:09:11.335Z,0.50
2022-12-10T18:16:35.006Z,0.30
2022-12-10T18:19:04.184Z,0.10
2022-12-10T18:23:58.365Z,0.10
2022-12-10T18:26:25.822Z,0.00
2022-12-10T18:28:54.120Z,0.20
2022-12-10T18:31:23.530Z,0.20
2022-12-10T18:33:52.572Z,0.30
2022-12-10T18:36:24.621Z,0.40
2022-12-10T18:38:53.556Z,1.00
2022-12-10T18:41:21.364Z,0.40
2022-12-10T18:46:18.584Z,0.40
2022-12-10T18:51:14.470Z,0.40
2022-12-10T18:56:12.096Z,1.10
2022-12-10T18:58:39.407Z,1.70
2022-12-10T19:01:07.258Z,1.80
2022-12-10T19:03:34.212Z,0.70
2022-12-10T19:06:00.927Z,0.80
2022-12-10T19:08:29.251Z,1.20
2022-12-10T19:10:56.139Z,1.00
2022-12-10T19:13:23.030Z,0.30
2022-12-10T19:15:51.879Z,0.40
2022-12-10T19:18:19.023Z,0.40
2022-12-10T19:20:46.893Z,1.50
2022-12-10T19:23:13.638Z,0.30
2022-12-10T19:25:40.341Z,0.90
2022-12-10T19:28:07.256Z,-0.40
2022-12-10T19:30:34.243Z,1.00
2022-12-10T19:33:02.058Z,0.30
2022-12-10T19:35:28.831Z,0.30
2022-12-10T19:37:57.959Z,0.30
2022-12-10T19:40:29.276Z,0.30
2022-12-10T19:42:56.638Z,0.00
2022-12-10T19:45:23.730Z,0.30
2022-12-10T19:47:53.549Z,0.50
2022-12-10T19:50:23.967Z,0.30
2022-12-10T19:52:56.467Z,0.30
2022-12-10T19:55:25.870Z,0.40
2022-12-10T19:57:52.777Z,0.60
2022-12-10T20:00:24.149Z,0.30
2022-12-10T20:02:52.346Z,0.30
2022-12-10T20:05:24.048Z,0.20
2022-12-10T20:07:54.193Z,2.50
2022-12-10T20:10:25.055Z,0.20
2022-12-10T20:12:52.559Z,0.30
2022-12-10T20:15:21.146Z,0.20
2022-12-10T20:17:48.472Z,0.30
2022-12-10T20:20:19.571Z,0.00
2022-12-10T20:22:47.162Z,0.30
2022-12-10T20:25:14.701Z,0.20
2022-12-10T20:27:42.345Z,0.20
2022-12-10T20:30:15.657Z,0.20
2022-12-10T20:32:44.100Z,0.20
2022-12-10T20:35:12.370Z,0.20
2022-12-10T20:37:39.066Z,0.20
2022-12-10T20:40:30.755Z,0.10
2022-12-10T20:42:56.526Z,0.00
2022-12-10T20:45:26.473Z,0.30
2022-12-10T20:47:53.210Z,0.10
2022-12-10T20:50:19.997Z,0.10
2022-12-10T20:52:47.300Z,0.10
2022-12-10T20:55:16.338Z,-0.20
2022-12-10T20:57:44.449Z,0.00
2022-12-10T21:00:16.941Z,0.00
2022-12-10T21:02:46.174Z,-0.20
2022-12-10T21:05:14.898Z,-0.10
2022-12-10T21:07:42.116Z,-1.00
2022-12-10T21:10:34.201Z,-0.30
2022-12-10T21:13:01.895Z,-0.60
2022-12-10T21:15:29.066Z,-0.40
2022-12-10T21:17:55.986Z,-0.20
2022-12-10T21:20:28.707Z,1.70
2022-12-10T21:22:56.041Z,-0.40
2022-12-10T21:25:22.912Z,-0.20
2022-12-10T21:27:49.616Z,-1.00
2022-12-10T21:30:18.368Z,-0.30
2022-12-10T21:32:45.243Z,-0.10
2022-12-10T21:35:12.299Z,-0.20
2022-12-10T21:37:39.133Z,-0.30
2022-12-10T21:40:06.837Z,0.60
2022-12-10T21:43:02.994Z,-0.20
2022-12-10T21:45:31.629Z,0.00
2022-12-10T21:47:59.601Z,-0.60
2022-12-10T21:50:26.561Z,0.30
2022-12-10T21:52:53.182Z,0.20
2022-12-10T21:55:22.182Z,0.10
2022-12-10T21:57:51.958Z,0.10
2022-12-10T22:00:18.840Z,0.20
2022-12-10T22:02:46.172Z,-0.10
2022-12-10T22:05:13.717Z,-0.40
2022-12-10T22:07:41.431Z,0.60
2022-12-10T22:10:10.587Z,0.00
2022-12-10T22:12:37.151Z,0.00
2022-12-10T22:15:04.874Z,-0.10
2022-12-10T22:17:31.775Z,-0.10
2022-12-10T22:20:05.471Z,0.00
2022-12-10T22:22:34.820Z,0.00
2022-12-10T22:25:01.740Z,0.10
2022-12-10T22:27:34.295Z,0.20
2022-12-10T22:30:02.751Z,0.20
2022-12-10T22:32:32.057Z,0.20
2022-12-10T22:34:59.321Z,-0.10
2022-12-10T22:37:29.294Z,0.50
2022-12-10T22:39:56.107Z,0.20
2022-12-10T22:42:22.724Z,0.10
2022-12-10T22:44:52.559Z,0.10
2022-12-10T22:47:20.148Z,-0.10
2022-12-10T22:49:47.232Z,0.80
2022-12-10T22:52:14.743Z,0.00
2022-12-10T22:54:41.337Z,0.10
2022-12-10T22:57:08.897Z,0.00
2022-12-10T22:59:36.489Z,-0.50
2022-12-10T23:02:03.539Z,0.20
2022-12-10T23:04:30.294Z,0.10
2022-12-10T23:06:58.106Z,-0.10
2022-12-10T23:09:25.851Z,-0.10
2022-12-10T23:12:10.440Z,-0.40
2022-12-10T23:14:37.251Z,-0.30
2022-12-10T23:17:03.916Z,0.00
2022-12-10T23:19:30.722Z,0.00
2022-12-10T23:21:58.193Z,-0.20
2022-12-10T23:24:25.648Z,-0.20
2022-12-10T23:26:52.274Z,-0.10
2022-12-10T23:29:18.931Z,0.10
2022-12-10T23:31:45.680Z,0.00
2022-12-10T23:34:12.333Z,0.00
2022-12-10T23:36:39.116Z,0.10
2022-12-10T23:39:05.845Z,0.10
2022-12-10T23:41:33.153Z,0.10
2022-12-10T23:43:59.721Z,0.10
2022-12-10T23:46:27.593Z,0.00
2022-12-10T23:48:54.283Z,-0.10
2022-12-10T23:51:21.079Z,0.20
2022-12-10T23:53:47.712Z,0.00
2022-12-10T23:56:17.267Z,-0.50
2022-12-10T23:58:45.753Z,0.00
